Time;durP1;ratioP1;P1;durP2;ratioP2;P2;SDS_P1;SDS_P2;PMS_P1;PMS_P2;Temp;Humidity;BMP_temperature;BMP_pressure;BME280_temperature;BME280_humidity;BME280_pressure;Samples;Min_cycle;Max_cycle;Signal;HPM_P1;HPM_P2
2021/06/14 00:06:21;;;;;;;1999.90;999.90;;;;;;;14.86;67.24;102040.16;15698159;28;20494;-64
2021/06/14 00:13:53;;;;;;;1999.90;999.90;;;;;;;14.57;68.37;102031.53;15715495;28;20049;-64
2021/06/14 00:21:27;;;;;;;1999.90;999.90;;;;;;;14.63;68.37;102033.03;15681767;28;20071;-64
2021/06/14 00:29:01;;;;;;;1999.90;999.90;;;;;;;14.48;67.80;102030.66;15708065;28;20037;-64
2021/06/14 00:36:34;;;;;;;1999.90;999.90;;;;;;;14.27;68.30;102028.44;15698296;28;20048;-64
2021/06/14 00:44:06;;;;;;;1999.90;999.90;;;;;;;14.29;67.85;102022.53;15702908;28;20128;-64
2021/06/14 00:51:40;;;;;;;1999.90;999.90;;;;;;;14.23;68.55;102024.66;15686202;28;20131;-64
2021/06/14 00:59:14;;;;;;;1999.90;999.90;;;;;;;14.14;68.94;102021.81;15740410;22;20053;-61
2021/06/14 01:06:49;;;;;;;1999.90;999.90;;;;;;;14.16;68.75;102025.13;15701504;28;20076;-59
2021/06/14 01:14:30;;;;;;;1999.90;999.90;;;;;;;14.01;69.22;102011.53;15670990;28;20294;-60
2021/06/14 01:22:25;;;;;;;1999.90;999.90;;;;;;;13.93;69.60;102009.53;15673340;28;20071;-59
2021/06/14 01:30:00;;;;;;;1999.90;999.90;;;;;;;13.82;69.33;102009.00;15670151;28;20040;-60
2021/06/14 01:37:35;;;;;;;1999.90;999.90;;;;;;;13.59;70.50;102001.81;15658602;28;20494;-61
2021/06/14 01:45:10;;;;;;;1999.90;999.90;;;;;;;13.63;70.05;101996.38;15669942;28;20037;-61
2021/06/14 01:52:43;;;;;;;1999.90;999.90;;;;;;;13.48;70.11;101992.00;15670350;28;20567;-61
2021/06/14 02:00:20;;;;;;;1999.90;999.90;;;;;;;13.44;70.35;101979.78;15672323;28;20502;-60
2021/06/14 02:08:14;;;;;;;1999.90;999.90;;;;;;;13.34;69.64;101988.44;15665559;28;20072;-60
2021/06/14 02:15:48;;;;;;;1999.90;999.90;;;;;;;13.17;70.10;101969.53;15684099;28;20481;-61
2021/06/14 02:23:27;;;;;;;1999.90;999.90;;;;;;;13.23;70.01;101971.06;15681376;28;20434;-63
2021/06/14 02:31:00;;;;;;;1999.90;999.90;;;;;;;12.90;70.89;101971.34;15682882;28;20072;-60
2021/06/14 02:38:32;;;;;;;;;;;;;;;12.96;70.87;101969.25;15682053;28;20497;-59
2021/06/14 02:46:08;;;;;;;1999.90;999.90;;;;;;;12.94;70.33;101965.94;15680843;28;20035;-60
2021/06/14 02:53:43;;;;;;;1999.90;999.90;;;;;;;12.63;71.76;101949.88;15679596;28;20094;-61
2021/06/14 03:01:18;;;;;;;1999.90;999.90;;;;;;;12.64;71.57;101959.13;15678731;28;20045;-61
2021/06/14 03:08:53;;;;;;;1999.90;999.90;;;;;;;12.64;71.73;101954.34;15678101;28;20095;-60
2021/06/14 03:16:31;;;;;;;1999.90;999.90;;;;;;;12.71;70.68;101957.53;15678811;28;20547;-60
2021/06/14 03:24:05;;;;;;;1999.90;999.90;;;;;;;12.77;70.91;101954.59;15678864;28;20047;-59
2021/06/14 03:31:42;;;;;;;1999.90;999.90;;;;;;;12.88;71.20;101956.81;15677977;28;20373;-60
2021/06/14 03:39:16;;;;;;;1999.90;999.90;;;;;;;13.03;70.84;101943.59;15679643;28;20470;-59
2021/06/14 03:46:50;;;;;;;1999.90;999.90;;;;;;;12.95;71.22;101942.38;15677788;28;20290;-60
2021/06/14 03:54:22;;;;;;;1999.90;999.90;;;;;;;13.22;71.56;101955.41;15677509;28;20370;-59
2021/06/14 04:01:56;;;;;;;1999.90;999.90;;;;;;;13.46;71.61;101955.06;15676430;28;20045;-60
2021/06/14 04:09:28;;;;;;;1999.90;999.90;;;;;;;13.65;71.28;101957.59;15676294;28;20516;-59
2021/06/14 04:17:01;;;;;;;1999.90;999.90;;;;;;;13.97;70.80;101951.63;15676366;28;20451;-60
2021/06/14 04:24:33;;;;;;;;;;;;;;;14.21;69.86;101947.53;15673983;28;20057;-60
2021/06/14 04:32:08;;;;;;;1999.90;999.90;;;;;;;14.57;69.37;101950.88;15674405;28;20145;-60
2021/06/14 04:39:40;;;;;;;1999.90;999.90;;;;;;;14.93;68.68;101939.31;15673939;28;20037;-59
2021/06/14 04:47:14;;;;;;;1999.90;999.90;;;;;;;15.05;68.85;101943.41;15675186;28;20044;-61
2021/06/14 04:54:57;;;;;;;1999.90;999.90;;;;;;;15.38;69.21;101938.84;15669245;28;20047;-60
2021/06/14 05:02:30;;;;;;;1999.90;999.90;;;;;;;15.98;67.30;101943.41;15673514;28;20052;-59
2021/06/14 05:10:03;;;;;;;1999.90;999.90;;;;;;;16.56;66.28;101952.09;15667900;28;20045;-62
2021/06/14 05:17:37;;;;;;;1999.90;999.90;;;;;;;17.19;64.72;101945.22;15672697;28;20506;-61
2021/06/14 05:25:10;;;;;;;1999.90;999.90;;;;;;;17.66;63.02;101949.66;15674786;28;20059;-60
2021/06/14 05:32:47;;;;;;;1999.90;999.90;;;;;;;18.21;61.53;101959.56;15675791;28;20095;-59
2021/06/14 05:40:20;;;;;;;1999.90;999.90;;;;;;;18.51;60.80;101971.38;15679621;28;20049;-57
2021/06/14 05:47:53;;;;;;;1999.90;999.90;;;;;;;19.32;59.64;101981.47;15677181;28;20033;-59
2021/06/14 05:55:25;;;;;;;1999.90;999.90;;;;;;;19.84;56.47;101974.78;15683593;28;20045;-66
2021/06/14 06:02:59;;;;;;;1999.90;999.90;;;;;;;19.92;54.93;101987.94;15695699;28;20049;-67
2021/06/14 06:10:31;;;;;;;1999.90;999.90;;;;;;;20.81;53.28;101986.38;15672142;28;20394;-66
2021/06/14 06:18:05;;;;;;;1999.90;999.90;;;;;;;21.47;51.52;101980.44;15661327;28;20096;-67
2021/06/14 06:25:37;;;;;;;1999.90;999.90;;;;;;;21.66;51.50;101975.88;15670986;28;20039;-67
2021/06/14 06:33:10;;;;;;;1999.90;999.90;;;;;;;22.39;50.20;101980.34;15671138;28;20405;-64
2021/06/14 06:40:42;;;;;;;1999.90;999.90;;;;;;;22.26;48.02;101968.38;15654108;28;20045;-67
2021/06/14 06:48:16;;;;;;;1999.90;999.90;;;;;;;23.11;45.53;101965.06;15659110;28;20081;-65
2021/06/14 06:55:48;;;;;;;1999.90;999.90;;;;;;;22.85;44.42;101948.91;15687392;22;20055;-82
2021/06/14 07:11:24;;;;;;;1999.90;999.90;;;;;;;24.24;44.24;101956.75;15672268;22;19920;-61
2021/06/14 07:18:57;;;;;;;1999.90;999.90;;;;;;;24.26;43.52;101944.94;15695652;28;20060;-60
2021/06/14 07:26:30;;;;;;;1999.90;999.90;;;;;;;24.54;43.36;101942.28;15694203;28;20088;-59
2021/06/14 07:34:05;;;;;;;;;;;;;;;25.32;42.03;101947.47;15689914;28;20053;-58
2021/06/14 07:41:38;;;;;;;1999.90;999.90;;;;;;;24.80;40.87;101949.72;15672152;28;19921;-61
2021/06/14 07:49:11;;;;;;;1999.90;999.90;;;;;;;25.59;40.43;101937.31;15687845;28;20122;-59
2021/06/14 07:56:46;;;;;;;1999.90;999.90;;;;;;;24.88;41.32;101942.84;15693604;28;20045;-62
2021/06/14 08:04:19;;;;;;;1999.90;999.90;;;;;;;26.18;39.96;101936.91;15704375;28;20121;-63
2021/06/14 08:11:54;;;;;;;1999.90;999.90;;;;;;;26.16;38.18;101920.16;15690163;28;20045;-61
2021/06/14 08:19:34;;;;;;;1999.90;999.90;;;;;;;27.02;38.62;101919.88;15669531;28;20391;-59
2021/06/14 08:27:06;;;;;;;1999.90;999.90;;;;;;;27.25;38.22;101913.59;15682199;28;20567;-61
2021/06/14 08:34:40;;;;;;;1999.90;999.90;;;;;;;27.20;36.49;101912.00;15681168;28;20037;-62
2021/06/14 08:42:12;;;;;;;1999.90;999.90;;;;;;;28.01;35.77;101903.13;15676142;28;20037;-60
2021/06/14 08:49:45;;;;;;;1999.90;999.90;;;;;;;28.80;35.86;101897.31;15667071;28;20049;-63
2021/06/14 08:57:18;;;;;;;1999.90;999.90;;;;;;;28.57;34.75;101893.09;15660812;28;20045;-64
2021/06/14 09:04:52;;;;;;;1999.90;999.90;;;;;;;28.58;32.55;101886.13;15678405;28;20049;-61
2021/06/14 09:12:24;;;;;;;1999.90;999.90;;;;;;;27.72;31.95;101871.06;15659115;28;20059;-61
2021/06/14 09:19:58;;;;;;;;;;;;;;;28.61;32.41;101859.41;15677292;28;20266;-63
2021/06/14 09:27:32;;;;;;;1999.90;999.90;;;;;;;27.95;33.09;101856.09;15672778;28;19920;-60
2021/06/14 09:35:08;;;;;;;1999.90;999.90;;;;;;;28.74;32.96;101831.72;15676081;28;20033;-61
2021/06/14 09:42:41;;;;;;;1999.90;999.90;;;;;;;30.11;30.53;101828.22;15673712;28;20049;-60
2021/06/14 09:50:23;;;;;;;;;;;;;;;29.55;29.24;101816.53;15670375;28;20073;-64
2021/06/14 09:57:55;;;;;;;1999.90;999.90;;;;;;;30.00;30.34;101811.13;15676846;28;20016;-61
2021/06/14 10:05:29;;;;;;;1999.90;999.90;;;;;;;30.01;29.47;101800.44;15659515;28;20049;-64
2021/06/14 10:13:01;;;;;;;1999.90;999.90;;;;;;;31.23;28.44;101793.63;15677151;28;20056;-65
2021/06/14 10:20:36;;;;;;;1999.90;999.90;;;;;;;31.35;31.52;101794.97;15660219;28;20561;-65
2021/06/14 10:28:09;;;;;;;1999.90;999.90;;;;;;;32.17;27.61;101776.19;15670265;28;20103;-64
2021/06/14 10:35:42;;;;;;;1999.90;999.90;;;;;;;32.63;26.45;101754.59;15671497;28;20513;-65
2021/06/14 10:43:15;;;;;;;1999.90;999.90;;;;;;;33.12;26.10;101750.50;15687781;28;20531;-63
2021/06/14 10:50:49;;;;;;;1999.90;999.90;;;;;;;34.11;24.94;101755.63;15669687;28;20456;-65
2021/06/14 10:58:22;;;;;;;1999.90;999.90;;;;;;;33.92;27.45;101729.91;15666961;28;20041;-65
2021/06/14 11:05:58;;;;;;;1999.90;999.90;;;;;;;35.05;26.03;101721.63;15684575;28;20045;-65
2021/06/14 11:13:30;;;;;;;1999.90;999.90;;;;;;;33.06;25.96;101703.25;15685336;28;20579;-66
2021/06/14 11:21:10;;;;;;;1999.90;999.90;;;;;;;32.20;27.27;101696.50;15684911;28;20053;-66
2021/06/14 11:28:43;;;;;;;1999.90;999.90;;;;;;;34.33;27.15;101688.97;15684353;28;20107;-64
2021/06/14 11:36:21;;;;;;;1999.90;999.90;;;;;;;34.04;26.29;101679.81;15665838;28;20049;-66
2021/06/14 11:44:28;;;;;;;1999.90;999.90;;;;;;;34.03;25.66;101666.59;15666765;28;20041;-65
2021/06/14 11:52:04;;;;;;;1999.90;999.90;;;;;;;35.12;24.18;101663.31;15649265;28;20445;-67
2021/06/14 11:59:37;;;;;;;1999.90;999.90;;;;;;;33.19;25.07;101634.59;15682586;28;20102;-67
2021/06/14 12:07:11;;;;;;;1999.90;999.90;;;;;;;34.25;24.57;101640.50;15664220;28;20048;-66
2021/06/14 12:14:50;;;;;;;1999.90;999.90;;;;;;;35.40;24.30;101631.44;15664427;28;20037;-66
2021/06/14 12:22:25;;;;;;;1999.90;999.90;;;;;;;36.13;22.50;101626.28;15680611;28;20041;-66
2021/06/14 12:29:59;;;;;;;1999.90;999.90;;;;;;;33.91;23.72;101606.72;15681942;28;20630;-66
2021/06/14 12:37:33;;;;;;;1999.90;999.90;;;;;;;36.34;22.80;101609.06;15663907;28;20049;-66
2021/06/14 12:45:07;;;;;;;1999.90;999.90;;;;;;;37.18;22.68;101600.13;15678731;28;20047;-65
2021/06/14 12:52:41;;;;;;;1999.90;999.90;;;;;;;40.13;20.96;101600.41;15680614;28;20041;-65
2021/06/14 13:00:16;;;;;;;1999.90;999.90;;;;;;;38.41;20.38;101590.69;15657724;22;20518;-84
2021/06/14 13:07:58;;;;;;;1999.90;999.90;;;;;;;33.44;26.72;101564.28;15658402;28;20044;-83
2021/06/14 13:15:31;;;;;;;1999.90;999.90;;;;;;;32.94;27.36;101566.16;15739736;23;20459;-63
2021/06/14 13:23:15;;;;;;;1999.90;999.90;;;;;;;32.26;27.35;101551.13;15663940;28;20110;-65
2021/06/14 13:30:48;;;;;;;1999.90;999.90;;;;;;;32.40;26.98;101549.84;15594482;28;20045;-67
2021/06/14 13:38:31;;;;;;;1999.90;999.90;;;;;;;31.76;30.44;101537.50;15618539;28;20135;-66
2021/06/14 13:46:04;;;;;;;1999.90;999.90;;;;;;;31.81;27.49;101537.75;15667127;28;20476;-66
2021/06/14 13:53:47;;;;;;;1999.90;999.90;;;;;;;31.41;30.98;101522.91;15655265;28;20048;-65
2021/06/14 14:01:22;;;;;;;1999.90;999.90;;;;;;;30.82;28.46;101520.50;15666575;28;20413;-65
2021/06/14 14:08:56;;;;;;;1999.90;999.90;;;;;;;31.23;29.02;101502.44;15684775;28;20311;-65
2021/06/14 14:16:29;;;;;;;1999.90;999.90;;;;;;;31.28;28.21;101504.78;15665054;28;20486;-64
2021/06/14 14:24:04;;;;;;;1999.90;999.90;;;;;;;31.20;31.65;101500.50;15657061;28;20067;-64
2021/06/14 14:31:40;;;;;;;1999.90;999.90;;;;;;;31.08;29.39;101483.94;15680667;28;20060;-64
2021/06/14 14:39:17;;;;;;;1999.90;999.90;;;;;;;30.81;29.57;101469.91;15674663;28;20049;-65
2021/06/14 14:46:49;;;;;;;1999.90;999.90;;;;;;;30.87;30.59;101456.56;15662944;28;20033;-65
2021/06/14 14:54:23;;;;;;;1999.90;999.90;;;;;;;30.98;31.21;101457.06;15684620;28;20519;-66
2021/06/14 15:01:56;;;;;;;1999.90;999.90;;;;;;;30.89;31.51;101451.16;15694107;28;20446;-65
2021/06/14 15:09:30;;;;;;;1999.90;999.90;;;;;;;30.37;31.81;101437.78;15628124;28;20054;-66
2021/06/14 15:17:02;;;;;;;1999.90;999.90;;;;;;;30.54;32.77;101439.38;15662965;28;20037;-65
2021/06/14 15:24:36;;;;;;;1999.90;999.90;;;;;;;29.95;30.83;101420.38;15648704;28;20045;-65
2021/06/14 15:32:09;;;;;;;1999.90;999.90;;;;;;;30.10;31.32;101409.31;15618886;28;20045;-65
2021/06/14 15:39:43;;;;;;;1999.90;999.90;;;;;;;30.19;31.89;101409.47;15648343;28;20076;-65
2021/06/14 15:47:15;;;;;;;1999.90;999.90;;;;;;;30.08;31.55;101404.03;15723009;28;20454;-63
2021/06/14 15:54:48;;;;;;;1999.90;999.90;;;;;;;29.65;31.04;101386.22;15722583;28;20140;-63
2021/06/14 16:02:20;;;;;;;1999.90;999.90;;;;;;;29.69;32.17;101384.06;15722511;28;20040;-64
2021/06/14 16:09:54;;;;;;;1999.90;999.90;;;;;;;29.79;31.93;101371.47;15685879;28;20508;-64
2021/06/14 16:17:26;;;;;;;1999.90;999.90;;;;;;;29.84;31.92;101368.06;15636880;28;20064;-65
2021/06/14 16:25:00;;;;;;;1999.90;999.90;;;;;;;29.76;34.03;101375.25;15640923;28;20119;-64
2021/06/14 16:32:32;;;;;;;1999.90;999.90;;;;;;;29.58;32.64;101362.13;15659794;28;20127;-64
2021/06/14 16:40:09;;;;;;;1999.90;999.90;;;;;;;29.48;32.34;101356.66;15660131;28;20041;-64
2021/06/14 16:47:41;;;;;;;1999.90;999.90;;;;;;;29.21;34.01;101354.00;15676843;28;20401;-62
2021/06/14 16:55:15;;;;;;;1999.90;999.90;;;;;;;29.22;34.66;101344.94;15652389;28;20055;-65
2021/06/14 17:02:49;;;;;;;1999.90;999.90;;;;;;;28.87;35.94;101340.00;15656991;28;20517;-64
2021/06/14 17:10:23;;;;;;;1999.90;999.90;;;;;;;28.13;36.78;101326.72;15655989;28;20107;-63
2021/06/14 17:17:55;;;;;;;1999.90;999.90;;;;;;;28.37;35.93;101318.13;15656495;28;20424;-64
2021/06/14 17:25:29;;;;;;;;;;;;;;;28.42;38.21;101311.84;15655332;28;20056;-63
2021/06/14 17:33:01;;;;;;;1999.90;999.90;;;;;;;28.30;36.45;101306.78;15651650;28;19921;-63
2021/06/14 17:40:35;;;;;;;1999.90;999.90;;;;;;;27.77;36.96;101300.81;15672216;28;20120;-64
2021/06/14 17:48:08;;;;;;;1999.90;999.90;;;;;;;28.15;35.86;101297.63;15654959;28;20048;-62
2021/06/14 17:55:45;;;;;;;1999.90;999.90;;;;;;;28.29;35.99;101296.53;15673206;28;20115;-58
2021/06/14 18:03:18;;;;;;;1999.90;999.90;;;;;;;28.25;36.09;101298.66;15655153;28;20045;-61
2021/06/14 18:10:52;;;;;;;1999.90;999.90;;;;;;;28.22;36.20;101303.19;15654503;28;20048;-60
2021/06/14 18:18:24;;;;;;;1999.90;999.90;;;;;;;28.05;38.23;101290.84;15654180;28;20045;-61
2021/06/14 18:25:59;;;;;;;1999.90;999.90;;;;;;;27.89;37.09;101293.63;15599317;28;20080;-60
2021/06/14 18:33:31;;;;;;;1999.90;999.90;;;;;;;27.84;37.87;101291.28;15637670;28;20417;-60
2021/06/14 18:41:05;;;;;;;;;;;;;;;27.61;37.88;101278.53;15672612;28;20132;-58
2021/06/14 18:48:38;;;;;;;1999.90;999.90;;;;;;;27.40;38.29;101290.38;15670520;28;19925;-60
2021/06/14 18:56:17;;;;;;;1999.90;999.90;;;;;;;27.24;39.23;101282.47;15680321;22;20492;-65
2021/06/14 19:03:49;;;;;;;1999.90;999.90;;;;;;;27.01;41.32;101286.06;15686582;28;20040;-64
2021/06/14 19:11:23;;;;;;;1999.90;999.90;;;;;;;26.61;40.11;101292.81;15693260;28;20049;-61
2021/06/14 19:18:55;;;;;;;1999.90;999.90;;;;;;;26.41;40.99;101312.69;15668716;28;20136;-61
2021/06/14 19:26:29;;;;;;;1999.90;999.90;;;;;;;26.18;42.03;101319.06;15668243;28;20045;-61
2021/06/14 19:34:01;;;;;;;1999.90;999.90;;;;;;;25.81;43.34;101320.69;15667917;28;20055;-65
2021/06/14 19:41:34;;;;;;;1999.90;999.90;;;;;;;25.54;42.93;101316.84;15683984;28;20057;-66
2021/06/14 19:49:06;;;;;;;1999.90;999.90;;;;;;;25.36;44.61;101336.16;15666262;28;20048;-62
2021/06/14 19:56:40;;;;;;;1999.90;999.90;;;;;;;24.98;46.07;101345.34;15667884;28;20076;-68
2021/06/14 20:04:12;;;;;;;1999.90;999.90;;;;;;;24.63;47.17;101334.16;15684125;28;20088;-68
2021/06/14 20:11:46;;;;;;;1999.90;999.90;;;;;;;24.46;47.12;101333.00;15663472;28;20045;-65
2021/06/14 20:19:18;;;;;;;1999.90;999.90;;;;;;;24.22;48.42;101342.44;15681080;28;20291;-68
2021/06/14 20:26:51;;;;;;;1999.90;999.90;;;;;;;24.03;48.24;101335.94;15662081;28;20136;-68
2021/06/14 20:34:24;;;;;;;1999.90;999.90;;;;;;;23.74;48.84;101337.22;15651066;28;20053;-68
2021/06/14 20:42:00;;;;;;;;;;;;;;;23.78;47.32;101335.19;15666869;28;20037;-65
2021/06/14 20:49:32;;;;;;;1999.90;999.90;;;;;;;23.61;49.18;101333.97;15647103;28;19955;-67
2021/06/14 20:57:07;;;;;;;1999.90;999.90;;;;;;;23.30;50.32;101316.44;15646662;28;20056;-67
2021/06/14 21:04:39;;;;;;;1999.90;999.90;;;;;;;23.03;50.66;101323.72;15665871;28;20076;-67
2021/06/14 21:12:13;;;;;;;1999.90;999.90;;;;;;;22.89;51.70;101324.53;15668774;28;20064;-66
2021/06/14 21:19:47;;;;;;;1999.90;999.90;;;;;;;22.72;51.93;101330.97;15660471;28;20144;-65
2021/06/14 21:27:21;;;;;;;1999.90;999.90;;;;;;;22.48;52.60;101329.63;15678227;28;20053;-64
2021/06/14 21:34:53;;;;;;;1999.90;999.90;;;;;;;22.27;53.53;101323.84;15675856;28;20560;-66
2021/06/14 21:42:26;;;;;;;1999.90;999.90;;;;;;;22.21;53.06;101320.59;15643190;28;20048;-66
2021/06/14 21:49:58;;;;;;;1999.90;999.90;;;;;;;22.09;53.75;101321.75;15658941;28;20048;-66
2021/06/14 21:57:32;;;;;;;1999.90;999.90;;;;;;;22.11;52.21;101325.00;15676595;28;20508;-67
2021/06/14 22:05:05;;;;;;;1999.90;999.90;;;;;;;22.07;51.91;101317.66;15642592;28;20044;-67
2021/06/14 22:12:39;;;;;;;1999.90;999.90;;;;;;;22.05;52.96;101309.50;15659545;28;20052;-67
2021/06/14 22:20:12;;;;;;;1999.90;999.90;;;;;;;21.79;53.38;101310.59;15666186;28;20118;-67
2021/06/14 22:27:45;;;;;;;;;;;;;;;21.67;53.80;101301.53;15689063;28;20476;-66
2021/06/14 22:35:17;;;;;;;1999.90;999.90;;;;;;;21.28;55.49;101300.03;15688721;28;19927;-65
2021/06/14 22:42:51;;;;;;;1999.90;999.90;;;;;;;21.08;56.43;101294.97;15671497;28;20041;-65
2021/06/14 22:50:23;;;;;;;1999.90;999.90;;;;;;;20.89;56.29;101293.16;15671633;28;20300;-64
2021/06/14 22:57:56;;;;;;;1999.90;999.90;;;;;;;20.74;58.05;101287.34;15669003;28;20516;-65
2021/06/14 23:05:29;;;;;;;1999.90;999.90;;;;;;;20.58;58.52;101294.44;15684634;28;20044;-65
2021/06/14 23:13:02;;;;;;;1999.90;999.90;;;;;;;20.43;58.69;101280.09;15679895;28;20490;-65
2021/06/14 23:20:35;;;;;;;1999.90;999.90;;;;;;;20.25;59.03;101283.88;15661556;28;20045;-66
2021/06/14 23:28:08;;;;;;;1999.90;999.90;;;;;;;20.13;59.40;101282.94;15679971;28;20413;-66
2021/06/14 23:35:40;;;;;;;1999.90;999.90;;;;;;;19.95;60.21;101269.72;15681983;28;20045;-65
2021/06/14 23:43:14;;;;;;;1999.90;999.90;;;;;;;19.87;59.87;101271.63;15649921;28;20041;-65
2021/06/14 23:50:46;;;;;;;1999.90;999.90;;;;;;;19.80;60.17;101265.88;15666035;28;20136;-65
2021/06/14 23:58:20;;;;;;;1999.90;999.90;;;;;;;19.69;60.89;101264.91;15682891;28;20099;-66
